createdAt,value
2023-02-16T00:00:47.038Z,994.85
2023-02-16T00:01:47.067Z,994.83
2023-02-16T00:02:47.046Z,994.84
2023-02-16T00:03:47.093Z,994.89
2023-02-16T00:04:47.028Z,994.88
2023-02-16T00:05:47.039Z,994.83
2023-02-16T00:06:46.979Z,994.79
2023-02-16T00:07:46.978Z,994.76
2023-02-16T00:08:46.978Z,994.83
2023-02-16T00:09:46.940Z,994.81
2023-02-16T00:10:46.939Z,994.78
2023-02-16T00:11:46.928Z,994.81
2023-02-16T00:12:46.925Z,994.77
2023-02-16T00:13:46.918Z,994.83
2023-02-16T00:14:46.909Z,994.79
2023-02-16T00:15:46.923Z,994.82
2023-02-16T00:16:46.910Z,994.89
2023-02-16T00:17:46.870Z,994.87
2023-02-16T00:18:46.864Z,994.85
2023-02-16T00:19:46.848Z,994.84
2023-02-16T00:20:46.828Z,994.81
2023-02-16T00:21:46.849Z,994.83
2023-02-16T00:22:46.816Z,994.81
2023-02-16T00:23:46.805Z,994.76
2023-02-16T00:24:46.829Z,994.84
2023-02-16T00:25:46.777Z,994.83
2023-02-16T00:26:46.779Z,994.76
2023-02-16T00:27:46.757Z,994.77
2023-02-16T00:28:46.751Z,994.75
2023-02-16T00:29:46.730Z,994.82
2023-02-16T00:30:46.773Z,994.82
2023-02-16T00:31:46.860Z,994.80
2023-02-16T00:32:46.701Z,994.78
2023-02-16T00:33:46.706Z,994.84
2023-02-16T00:34:46.692Z,994.87
2023-02-16T00:35:46.684Z,994.92
2023-02-16T00:36:46.674Z,994.89
2023-02-16T00:37:46.652Z,994.87
2023-02-16T00:38:46.663Z,994.89
2023-02-16T00:39:46.639Z,994.92
2023-02-16T00:40:46.649Z,994.90
2023-02-16T00:41:46.624Z,994.87
2023-02-16T00:42:46.624Z,994.84
2023-02-16T00:43:46.606Z,994.81
2023-02-16T00:44:46.588Z,994.91
2023-02-16T00:45:46.588Z,994.83
2023-02-16T00:46:46.575Z,994.84
2023-02-16T00:47:46.567Z,994.85
2023-02-16T00:48:46.567Z,994.84
2023-02-16T00:49:46.537Z,994.93
2023-02-16T00:50:46.555Z,994.91
2023-02-16T00:51:46.544Z,994.90
2023-02-16T00:52:46.508Z,994.94
2023-02-16T00:53:46.495Z,994.92
2023-02-16T00:54:46.501Z,994.86
2023-02-16T00:55:46.476Z,994.87
2023-02-16T00:56:46.477Z,994.83
2023-02-16T00:57:46.462Z,994.78
2023-02-16T00:58:46.436Z,994.77
2023-02-16T00:59:46.439Z,994.89
2023-02-16T01:00:46.459Z,994.87
2023-02-16T01:01:46.444Z,994.87
2023-02-16T01:02:46.407Z,994.85
2023-02-16T01:03:46.429Z,994.84
2023-02-16T01:04:46.474Z,994.86
2023-02-16T01:05:46.377Z,994.92
2023-02-16T01:06:46.404Z,994.94
2023-02-16T01:07:46.364Z,994.96
2023-02-16T01:08:46.324Z,994.93
2023-02-16T01:09:46.334Z,994.90
2023-02-16T01:10:46.331Z,994.99
2023-02-16T01:11:46.307Z,995.01
2023-02-16T01:12:46.303Z,995.03
2023-02-16T01:13:46.313Z,995.01
2023-02-16T01:14:46.263Z,995.00
2023-02-16T01:15:46.332Z,994.96
2023-02-16T01:16:46.256Z,995.05
2023-02-16T01:17:46.233Z,995.00
2023-02-16T01:18:46.229Z,994.98
2023-02-16T01:19:46.224Z,994.97
2023-02-16T01:20:46.214Z,994.98
2023-02-16T01:21:46.283Z,994.93
2023-02-16T01:22:46.186Z,994.92
2023-02-16T01:23:46.202Z,994.91
2023-02-16T01:24:46.175Z,994.94
2023-02-16T01:25:46.163Z,994.84
2023-02-16T01:26:46.150Z,994.88
2023-02-16T01:27:46.152Z,994.89
2023-02-16T01:28:46.153Z,994.89
2023-02-16T01:29:46.108Z,994.89
2023-02-16T01:30:46.220Z,994.89
2023-02-16T01:31:46.246Z,994.83
2023-02-16T01:32:46.078Z,994.78
2023-02-16T01:33:46.096Z,994.83
2023-02-16T01:34:46.072Z,994.84
2023-02-16T01:35:46.053Z,994.81
2023-02-16T01:36:46.057Z,994.82
2023-02-16T01:37:46.035Z,994.85
2023-02-16T01:38:46.030Z,994.78
2023-02-16T01:39:46.021Z,994.79
2023-02-16T01:40:46.024Z,994.80
2023-02-16T01:41:46.009Z,994.77
2023-02-16T01:42:45.984Z,994.67
2023-02-16T01:43:45.964Z,994.77
2023-02-16T01:44:45.977Z,994.74
2023-02-16T01:45:45.977Z,994.77
2023-02-16T01:46:45.996Z,994.70
2023-02-16T01:47:45.959Z,994.69
2023-02-16T01:48:45.928Z,994.69
2023-02-16T01:49:45.925Z,994.71
2023-02-16T01:50:45.895Z,994.67
2023-02-16T01:51:45.898Z,994.69
2023-02-16T01:52:45.895Z,994.64
2023-02-16T01:53:45.859Z,994.62
2023-02-16T01:54:45.877Z,994.58
2023-02-16T01:55:45.849Z,994.59
2023-02-16T01:56:45.827Z,994.52
2023-02-16T01:57:45.827Z,994.57
2023-02-16T01:58:45.816Z,994.52
2023-02-16T01:59:45.808Z,994.59
2023-02-16T02:00:45.796Z,994.58
2023-02-16T02:01:45.825Z,994.56
2023-02-16T02:02:45.812Z,994.57
2023-02-16T02:03:45.781Z,994.70
2023-02-16T02:04:45.749Z,994.62
2023-02-16T02:05:45.751Z,994.66
2023-02-16T02:06:45.748Z,994.61
2023-02-16T02:07:45.727Z,994.65
2023-02-16T02:08:45.711Z,994.57
2023-02-16T02:09:45.727Z,994.56
2023-02-16T02:10:45.697Z,994.54
2023-02-16T02:11:45.687Z,994.51
2023-02-16T02:12:45.714Z,994.50
2023-02-16T02:13:45.657Z,994.58
2023-02-16T02:14:45.666Z,994.54
2023-02-16T02:15:45.650Z,994.54
2023-02-16T02:16:45.629Z,994.54
2023-02-16T02:17:45.700Z,994.55
2023-02-16T02:18:45.620Z,994.54
2023-02-16T02:19:45.664Z,994.53
2023-02-16T02:20:45.620Z,994.59
2023-02-16T02:21:45.601Z,994.56
2023-02-16T02:22:45.571Z,994.52
2023-02-16T02:23:45.571Z,994.53
2023-02-16T02:24:45.565Z,994.59
2023-02-16T02:25:45.548Z,994.50
2023-02-16T02:26:45.590Z,994.52
2023-02-16T02:27:45.521Z,994.54
2023-02-16T02:28:45.528Z,994.54
2023-02-16T02:29:45.511Z,994.55
2023-02-16T02:30:45.563Z,994.52
2023-02-16T02:31:45.611Z,994.52
2023-02-16T02:32:45.481Z,994.57
2023-02-16T02:33:45.458Z,994.59
2023-02-16T02:34:45.512Z,994.47
2023-02-16T02:35:45.439Z,994.47
2023-02-16T02:36:45.481Z,994.48
2023-02-16T02:37:45.431Z,994.48
2023-02-16T02:38:45.421Z,994.44
2023-02-16T02:39:45.412Z,994.38
2023-02-16T02:40:45.383Z,994.35
2023-02-16T02:41:45.392Z,994.41
2023-02-16T02:42:45.391Z,994.43
2023-02-16T02:43:45.375Z,994.41
2023-02-16T02:44:45.354Z,994.41
2023-02-16T02:45:45.364Z,994.33
2023-02-16T02:46:45.356Z,994.42
2023-02-16T02:47:45.360Z,994.38
2023-02-16T02:48:45.301Z,994.43
2023-02-16T02:49:45.303Z,994.43
2023-02-16T02:50:45.282Z,994.44
2023-02-16T02:51:45.294Z,994.48
2023-02-16T02:52:45.303Z,994.43
2023-02-16T02:53:45.255Z,994.39
2023-02-16T02:54:45.260Z,994.45
2023-02-16T02:55:45.233Z,994.39
2023-02-16T02:56:45.213Z,994.40
2023-02-16T02:57:45.214Z,994.36
2023-02-16T02:58:45.212Z,994.34
2023-02-16T02:59:45.213Z,994.29
2023-02-16T03:00:45.236Z,994.31
2023-02-16T03:01:45.199Z,994.36
2023-02-16T03:02:45.155Z,994.31
2023-02-16T03:03:45.173Z,994.29
2023-02-16T03:04:45.192Z,994.35
2023-02-16T03:05:45.143Z,994.29
2023-02-16T03:06:45.130Z,994.30
2023-02-16T03:07:45.106Z,994.33
2023-02-16T03:08:45.104Z,994.34
2023-02-16T03:09:45.093Z,994.34
2023-02-16T03:10:45.103Z,994.36
2023-02-16T03:11:46.961Z,994.34
2023-02-16T03:12:45.061Z,994.33
2023-02-16T03:13:45.075Z,994.32
2023-02-16T03:14:45.033Z,994.32
2023-02-16T03:15:45.047Z,994.33
2023-02-16T03:16:45.119Z,994.34
2023-02-16T03:17:45.029Z,994.36
2023-02-16T03:18:44.993Z,994.35
2023-02-16T03:19:45.005Z,994.37
2023-02-16T03:20:44.974Z,994.28
2023-02-16T03:21:44.988Z,994.30
2023-02-16T03:22:44.990Z,994.31
2023-02-16T03:23:44.941Z,994.25
2023-02-16T03:24:44.943Z,994.28
2023-02-16T03:25:44.950Z,994.32
2023-02-16T03:26:44.919Z,994.34
2023-02-16T03:27:44.913Z,994.27
2023-02-16T03:28:44.912Z,994.30
2023-02-16T03:29:44.888Z,994.31
2023-02-16T03:30:44.967Z,994.24
2023-02-16T03:31:44.927Z,994.27
2023-02-16T03:32:44.839Z,994.30
2023-02-16T03:33:44.859Z,994.26
2023-02-16T03:34:44.829Z,994.29
2023-02-16T03:35:44.812Z,994.33
2023-02-16T03:36:44.837Z,994.38
2023-02-16T03:37:44.825Z,994.36
2023-02-16T03:38:44.810Z,994.34
2023-02-16T03:39:44.780Z,994.37
2023-02-16T03:40:44.751Z,994.35
2023-02-16T03:41:44.751Z,994.36
2023-02-16T03:42:44.731Z,994.34
2023-02-16T03:43:44.759Z,994.41
2023-02-16T03:44:44.714Z,994.34
2023-02-16T03:45:44.767Z,994.33
2023-02-16T03:46:44.691Z,994.37
2023-02-16T03:47:44.680Z,994.31
2023-02-16T03:48:44.701Z,994.34
2023-02-16T03:49:44.669Z,994.35
2023-02-16T03:50:44.650Z,994.36
2023-02-16T03:51:44.650Z,994.43
2023-02-16T03:52:44.632Z,994.39
2023-02-16T03:53:44.642Z,994.40
2023-02-16T03:54:44.621Z,994.40
2023-02-16T03:55:44.628Z,994.45
2023-02-16T03:56:44.594Z,994.40
2023-02-16T03:57:44.645Z,994.46
2023-02-16T03:58:44.583Z,994.50
2023-02-16T03:59:44.565Z,994.52
2023-02-16T04:00:44.574Z,994.54
2023-02-16T04:01:44.566Z,994.51
2023-02-16T04:02:44.562Z,994.53
2023-02-16T04:03:44.537Z,994.56
2023-02-16T04:04:44.514Z,994.63
2023-02-16T04:05:44.535Z,994.58
2023-02-16T04:06:44.496Z,994.59
2023-02-16T04:07:44.484Z,994.60
2023-02-16T04:08:44.465Z,994.59
2023-02-16T04:09:44.485Z,994.60
2023-02-16T04:10:44.466Z,994.55
2023-02-16T04:11:44.455Z,994.57
2023-02-16T04:12:44.444Z,994.59
2023-02-16T04:13:44.416Z,994.59
2023-02-16T04:14:44.435Z,994.60
2023-02-16T04:15:44.421Z,994.57
2023-02-16T04:16:44.419Z,994.63
2023-02-16T04:17:44.389Z,994.58
2023-02-16T04:18:44.383Z,994.65
2023-02-16T04:19:44.357Z,994.55
2023-02-16T04:20:44.368Z,994.56
2023-02-16T04:21:44.355Z,994.57
2023-02-16T04:22:44.337Z,994.56
2023-02-16T04:23:44.319Z,994.52
2023-02-16T04:24:44.306Z,994.64
2023-02-16T04:25:44.325Z,994.61
2023-02-16T04:26:44.277Z,994.64
2023-02-16T04:27:44.291Z,994.59
2023-02-16T04:28:44.288Z,994.58
2023-02-16T04:29:44.273Z,994.61
2023-02-16T04:30:44.355Z,994.56
2023-02-16T04:31:44.342Z,994.57
2023-02-16T04:32:44.224Z,994.59
2023-02-16T04:33:44.233Z,994.62
2023-02-16T04:34:44.215Z,994.54
2023-02-16T04:35:44.204Z,994.56
2023-02-16T04:36:44.182Z,994.56
2023-02-16T04:37:44.163Z,994.57
2023-02-16T04:38:44.170Z,994.64
2023-02-16T04:39:44.159Z,994.59
2023-02-16T04:40:44.140Z,994.61
2023-02-16T04:41:44.143Z,994.61
2023-02-16T04:42:44.102Z,994.63
2023-02-16T04:43:44.132Z,994.58
2023-02-16T04:44:44.091Z,994.59
2023-02-16T04:45:44.122Z,994.64
2023-02-16T04:46:44.082Z,994.60
2023-02-16T04:47:44.081Z,994.62
2023-02-16T04:48:44.051Z,994.60
2023-02-16T04:49:44.041Z,994.55
2023-02-16T04:50:44.029Z,994.57
2023-02-16T04:51:44.025Z,994.57
2023-02-16T04:52:44.011Z,994.65
2023-02-16T04:53:44.022Z,994.60
2023-02-16T04:54:43.998Z,994.58
2023-02-16T04:55:43.982Z,994.62
2023-02-16T04:56:43.987Z,994.60
2023-02-16T04:57:43.980Z,994.60
2023-02-16T04:58:43.972Z,994.55
2023-02-16T04:59:43.955Z,994.49
2023-02-16T05:00:43.952Z,994.54
2023-02-16T05:01:43.966Z,994.52
2023-02-16T05:02:43.899Z,994.56
2023-02-16T05:03:43.916Z,994.57
2023-02-16T05:04:43.957Z,994.60
2023-02-16T05:05:43.919Z,994.58
2023-02-16T05:06:43.876Z,994.62
2023-02-16T05:07:43.862Z,994.62
2023-02-16T05:08:43.862Z,994.61
2023-02-16T05:09:43.833Z,994.60
2023-02-16T05:10:43.909Z,994.55
2023-02-16T05:11:43.829Z,994.58
2023-02-16T05:12:43.831Z,994.56
2023-02-16T05:13:43.818Z,994.57
2023-02-16T05:14:43.789Z,994.58
2023-02-16T05:15:43.840Z,994.58
2023-02-16T05:16:43.761Z,994.52
2023-02-16T05:17:43.764Z,994.54
2023-02-16T05:18:43.752Z,994.56
2023-02-16T05:19:43.742Z,994.56
2023-02-16T05:20:43.725Z,994.58
2023-02-16T05:21:43.749Z,994.62
2023-02-16T05:22:43.732Z,994.61
2023-02-16T05:23:43.690Z,994.64
2023-02-16T05:24:43.694Z,994.70
2023-02-16T05:25:43.682Z,994.66
2023-02-16T05:26:43.653Z,994.61
2023-02-16T05:27:43.670Z,994.64
2023-02-16T05:28:43.651Z,994.66
2023-02-16T05:29:43.670Z,994.62
2023-02-16T05:30:43.651Z,994.67
2023-02-16T05:31:43.736Z,994.66
2023-02-16T05:32:43.601Z,994.71
2023-02-16T05:33:43.595Z,994.70
2023-02-16T05:34:43.602Z,994.69
2023-02-16T05:35:43.562Z,994.74
2023-02-16T05:36:43.562Z,994.73
2023-02-16T05:37:43.542Z,994.70
2023-02-16T05:38:43.574Z,994.69
2023-02-16T05:39:43.524Z,994.74
2023-02-16T05:40:43.536Z,994.71
2023-02-16T05:41:43.522Z,994.70
2023-02-16T05:42:43.510Z,994.72
2023-02-16T05:43:43.486Z,994.70
2023-02-16T05:44:43.517Z,994.67
2023-02-16T05:45:43.497Z,994.68
2023-02-16T05:46:43.461Z,994.74
2023-02-16T05:47:45.555Z,994.71
2023-02-16T05:48:43.447Z,994.71
2023-02-16T05:49:43.441Z,994.72
2023-02-16T05:50:43.408Z,994.76
2023-02-16T05:51:43.411Z,994.82
2023-02-16T05:52:43.408Z,994.78
2023-02-16T05:53:44.080Z,994.77
2023-02-16T05:54:44.040Z,994.78
2023-02-16T05:55:43.413Z,994.82
2023-02-16T05:56:43.368Z,994.78
2023-02-16T05:57:43.828Z,994.84
2023-02-16T05:58:43.356Z,994.80
2023-02-16T05:59:43.409Z,994.78
2023-02-16T06:00:43.336Z,994.86
2023-02-16T06:01:43.330Z,994.84
2023-02-16T06:02:43.352Z,994.86
2023-02-16T06:03:43.305Z,994.89
2023-02-16T06:04:43.292Z,994.86
2023-02-16T06:05:43.269Z,994.86
2023-02-16T06:06:43.263Z,994.88
2023-02-16T06:07:43.249Z,994.82
2023-02-16T06:08:43.229Z,994.90
2023-02-16T06:09:43.231Z,994.90
2023-02-16T06:10:43.229Z,994.92
2023-02-16T06:11:43.237Z,994.99
2023-02-16T06:12:44.861Z,994.94
2023-02-16T06:13:43.181Z,994.94
2023-02-16T06:14:43.170Z,994.91
2023-02-16T06:15:43.193Z,994.99
2023-02-16T06:16:43.188Z,994.98
2023-02-16T06:17:43.132Z,995.03
2023-02-16T06:18:44.892Z,994.96
2023-02-16T06:19:43.143Z,995.05
2023-02-16T06:20:43.123Z,995.04
2023-02-16T06:21:43.105Z,995.04
2023-02-16T06:22:43.093Z,995.09
2023-02-16T06:23:43.094Z,995.14
2023-02-16T06:24:43.073Z,995.11
2023-02-16T06:25:43.073Z,995.13
2023-02-16T06:26:43.117Z,995.16
2023-02-16T06:27:43.079Z,995.11
2023-02-16T06:28:43.104Z,995.11
2023-02-16T06:29:43.149Z,995.13
2023-02-16T06:30:43.093Z,995.10
2023-02-16T06:31:43.150Z,995.13
2023-02-16T06:32:42.992Z,995.11
2023-02-16T06:33:42.985Z,995.07
2023-02-16T06:34:43.081Z,995.00
2023-02-16T06:35:42.950Z,995.02
2023-02-16T06:36:42.957Z,995.04
2023-02-16T06:37:42.925Z,995.05
2023-02-16T06:38:42.920Z,995.09
2023-02-16T06:39:42.911Z,995.08
2023-02-16T06:40:42.907Z,995.04
2023-02-16T06:41:42.915Z,995.04
2023-02-16T06:42:42.882Z,995.14
2023-02-16T06:43:42.885Z,995.07
2023-02-16T06:44:42.869Z,995.11
2023-02-16T06:45:42.852Z,995.11
2023-02-16T06:46:42.878Z,995.01
2023-02-16T06:47:42.861Z,995.05
2023-02-16T06:48:42.839Z,994.98
2023-02-16T06:49:42.790Z,995.03
2023-02-16T06:50:42.813Z,995.07
2023-02-16T06:51:42.784Z,995.03
2023-02-16T06:52:42.799Z,995.06
2023-02-16T06:53:42.771Z,995.12
2023-02-16T06:54:42.782Z,995.11
2023-02-16T06:55:42.741Z,995.10
2023-02-16T06:56:42.760Z,995.13
2023-02-16T06:57:42.741Z,995.12
2023-02-16T06:58:42.729Z,995.18
2023-02-16T06:59:42.715Z,995.07
2023-02-16T07:00:42.724Z,995.16
2023-02-16T07:01:44.939Z,995.10
2023-02-16T07:02:42.708Z,995.15
2023-02-16T07:03:42.653Z,995.23
2023-02-16T07:04:42.679Z,995.19
2023-02-16T07:05:42.643Z,995.17
2023-02-16T07:06:42.646Z,995.19
2023-02-16T07:07:42.622Z,995.13
2023-02-16T07:08:42.638Z,995.19
2023-02-16T07:09:42.601Z,995.15
2023-02-16T07:10:49.745Z,995.14
2023-02-16T07:11:43.612Z,995.21
2023-02-16T07:12:42.589Z,995.16
2023-02-16T07:13:42.571Z,995.23
2023-02-16T07:14:44.158Z,995.15
2023-02-16T07:15:42.529Z,995.14
2023-02-16T07:16:42.539Z,995.16
2023-02-16T07:17:42.521Z,995.16
2023-02-16T07:18:42.511Z,995.18
2023-02-16T07:19:42.491Z,995.18
2023-02-16T07:20:42.481Z,995.15
2023-02-16T07:21:42.481Z,995.16
2023-02-16T07:22:42.469Z,995.18
2023-02-16T07:23:42.483Z,995.08
2023-02-16T07:24:42.444Z,995.07
2023-02-16T07:25:42.440Z,995.19
2023-02-16T07:26:42.435Z,995.21
2023-02-16T07:27:42.400Z,995.17
2023-02-16T07:28:42.424Z,995.20
2023-02-16T07:29:42.402Z,995.19
2023-02-16T07:30:42.412Z,995.18
2023-02-16T07:31:42.520Z,995.21
2023-02-16T07:32:42.352Z,995.20
2023-02-16T07:33:42.355Z,995.23
2023-02-16T07:34:42.332Z,995.20
2023-02-16T07:35:42.322Z,995.22
2023-02-16T07:36:42.342Z,995.21
2023-02-16T07:37:42.300Z,995.23
2023-02-16T07:38:42.308Z,995.26
2023-02-16T07:39:42.294Z,995.25
2023-02-16T07:40:42.988Z,995.22
2023-02-16T07:41:42.289Z,995.24
2023-02-16T07:42:42.390Z,995.19
2023-02-16T07:43:42.292Z,995.15
2023-02-16T07:44:43.239Z,995.24
2023-02-16T07:45:42.256Z,995.23
2023-02-16T07:46:42.869Z,995.24
2023-02-16T07:47:42.241Z,995.28
2023-02-16T07:48:42.896Z,995.26
2023-02-16T07:49:43.181Z,995.28
2023-02-16T07:50:42.203Z,995.36
2023-02-16T07:51:42.159Z,995.34
2023-02-16T07:52:42.149Z,995.33
2023-02-16T07:53:42.159Z,995.38
2023-02-16T07:54:42.136Z,995.35
2023-02-16T07:55:42.129Z,995.46
2023-02-16T07:56:42.138Z,995.39
2023-02-16T07:57:42.100Z,995.40
2023-02-16T07:58:42.100Z,995.46
2023-02-16T07:59:42.111Z,995.51
2023-02-16T08:00:42.079Z,995.48
2023-02-16T08:01:42.068Z,995.51
2023-02-16T08:02:42.182Z,995.51
2023-02-16T08:03:42.046Z,995.50
2023-02-16T08:04:42.060Z,995.50
2023-02-16T08:05:42.002Z,995.47
2023-02-16T08:06:42.002Z,995.47
2023-02-16T08:07:42.032Z,995.49
2023-02-16T08:08:41.997Z,995.38
2023-02-16T08:09:41.978Z,995.41
2023-02-16T08:10:41.969Z,995.34
2023-02-16T08:11:41.940Z,995.37
2023-02-16T08:12:41.980Z,995.42
2023-02-16T08:13:41.931Z,995.42
2023-02-16T08:14:41.957Z,995.46
2023-02-16T08:15:41.901Z,995.46
2023-02-16T08:16:42.010Z,995.44
2023-02-16T08:17:41.892Z,995.51
2023-02-16T08:18:41.906Z,995.47
2023-02-16T08:19:41.867Z,995.48
2023-02-16T08:21:02.379Z,995.46
2023-02-16T08:21:42.858Z,995.44
2023-02-16T08:22:41.845Z,995.37
2023-02-16T08:23:41.838Z,995.34
2023-02-16T08:24:41.872Z,995.36
2023-02-16T08:25:41.908Z,995.34
2023-02-16T08:26:41.836Z,995.33
2023-02-16T08:27:41.798Z,995.30
2023-02-16T08:28:41.776Z,995.37
2023-02-16T08:29:41.762Z,995.41
2023-02-16T08:30:41.766Z,995.40
2023-02-16T08:31:41.897Z,995.39
2023-02-16T08:32:41.736Z,995.40
2023-02-16T08:33:41.739Z,995.39
2023-02-16T08:34:43.384Z,995.41
2023-02-16T08:35:41.694Z,995.40
2023-02-16T08:36:41.726Z,995.38
2023-02-16T08:37:41.676Z,995.31
2023-02-16T08:38:41.772Z,995.39
2023-02-16T08:39:41.663Z,995.32
2023-02-16T08:40:41.667Z,995.31
2023-02-16T08:41:41.677Z,995.32
2023-02-16T08:42:41.645Z,995.30
2023-02-16T08:43:41.632Z,995.36
2023-02-16T08:44:41.625Z,995.31
2023-02-16T08:45:41.633Z,995.28
2023-02-16T08:46:41.596Z,995.30
2023-02-16T08:47:41.581Z,995.39
2023-02-16T08:48:41.578Z,995.31
2023-02-16T08:49:41.625Z,995.40
2023-02-16T08:50:41.544Z,995.32
2023-02-16T08:51:41.563Z,995.30
2023-02-16T08:52:41.543Z,995.37
2023-02-16T08:53:41.502Z,995.38
2023-02-16T08:54:41.522Z,995.38
2023-02-16T08:55:41.496Z,995.39
2023-02-16T08:56:41.505Z,995.36
2023-02-16T08:57:41.464Z,995.38
2023-02-16T08:58:41.482Z,995.38
2023-02-16T08:59:41.478Z,995.37
2023-02-16T09:00:41.450Z,995.38
2023-02-16T09:01:41.496Z,995.37
2023-02-16T09:02:41.511Z,995.36
2023-02-16T09:03:41.407Z,995.32
2023-02-16T09:04:41.409Z,995.33
2023-02-16T09:05:41.392Z,995.33
2023-02-16T09:06:41.492Z,995.38
2023-02-16T09:07:42.380Z,995.31
2023-02-16T09:08:41.344Z,995.29
2023-02-16T09:09:42.771Z,995.23
2023-02-16T09:10:41.353Z,995.21
2023-02-16T09:11:41.321Z,995.28
2023-02-16T09:12:41.341Z,995.21
2023-02-16T09:13:41.316Z,995.26
2023-02-16T09:14:41.291Z,995.17
2023-02-16T09:15:41.300Z,995.19
2023-02-16T09:16:41.298Z,995.24
2023-02-16T09:17:41.272Z,995.21
2023-02-16T09:18:41.273Z,995.22
2023-02-16T09:19:41.250Z,995.25
2023-02-16T09:20:41.381Z,995.22
2023-02-16T09:21:41.213Z,995.18
2023-02-16T09:22:41.204Z,995.24
2023-02-16T09:23:41.955Z,995.16
2023-02-16T09:24:41.212Z,995.22
2023-02-16T09:25:41.184Z,995.23
2023-02-16T09:26:41.192Z,995.26
2023-02-16T09:27:41.161Z,995.28
2023-02-16T09:28:41.153Z,995.22
2023-02-16T09:29:41.134Z,995.28
2023-02-16T09:30:41.182Z,995.28
2023-02-16T09:31:41.164Z,995.28
2023-02-16T09:32:41.103Z,995.29
2023-02-16T09:33:41.094Z,995.30
2023-02-16T09:34:41.083Z,995.33
2023-02-16T09:35:41.083Z,995.25
2023-02-16T09:36:41.085Z,995.18
2023-02-16T09:37:41.043Z,995.19
2023-02-16T09:38:41.038Z,995.23
2023-02-16T09:39:41.053Z,995.20
2023-02-16T09:40:41.024Z,995.23
2023-02-16T09:41:41.049Z,995.19
2023-02-16T09:42:40.990Z,995.19
2023-02-16T09:43:41.001Z,995.14
2023-02-16T09:44:41.008Z,995.25
2023-02-16T09:45:40.966Z,995.24
2023-02-16T09:46:41.070Z,995.23
2023-02-16T09:47:40.944Z,995.24
2023-02-16T09:48:40.943Z,995.19
2023-02-16T09:49:40.950Z,995.14
2023-02-16T09:50:53.409Z,995.10
2023-02-16T09:51:41.920Z,995.16
2023-02-16T09:52:41.598Z,995.11
2023-02-16T09:53:40.915Z,995.13
2023-02-16T09:54:40.950Z,995.17
2023-02-16T09:55:40.865Z,995.16
2023-02-16T09:56:40.874Z,995.20
2023-02-16T09:57:40.845Z,995.13
2023-02-16T09:58:40.838Z,995.08
2023-02-16T09:59:40.825Z,995.09
2023-02-16T10:00:40.827Z,995.08
2023-02-16T10:01:40.813Z,995.09
2023-02-16T10:02:40.799Z,995.11
2023-02-16T10:03:40.775Z,995.13
2023-02-16T10:04:40.766Z,995.01
2023-02-16T10:05:40.776Z,995.05
2023-02-16T10:06:40.757Z,995.00
2023-02-16T10:07:40.754Z,994.98
2023-02-16T10:08:40.736Z,995.01
2023-02-16T10:09:40.705Z,995.00
2023-02-16T10:10:40.707Z,995.02
2023-02-16T10:11:40.708Z,995.00
2023-02-16T10:12:40.707Z,994.93
2023-02-16T10:13:40.686Z,995.06
2023-02-16T10:14:40.677Z,995.05
2023-02-16T10:15:40.696Z,995.04
2023-02-16T10:16:40.642Z,995.03
2023-02-16T10:17:40.632Z,995.03
2023-02-16T10:18:40.621Z,995.04
2023-02-16T10:19:40.614Z,995.03
2023-02-16T10:20:40.632Z,995.07
2023-02-16T10:21:40.584Z,995.01
2023-02-16T10:22:40.590Z,995.05
2023-02-16T10:23:40.566Z,995.08
2023-02-16T10:24:40.568Z,995.01
2023-02-16T10:25:40.568Z,995.04
2023-02-16T10:26:40.539Z,994.98
2023-02-16T10:27:40.533Z,995.00
2023-02-16T10:28:40.501Z,995.03
2023-02-16T10:29:40.538Z,994.98
2023-02-16T10:30:40.513Z,994.97
2023-02-16T10:31:40.591Z,994.93
2023-02-16T10:32:44.081Z,994.96
2023-02-16T10:33:40.472Z,995.02
2023-02-16T10:34:40.452Z,994.91
2023-02-16T10:35:40.460Z,994.90
2023-02-16T10:36:40.449Z,994.90
2023-02-16T10:37:40.411Z,994.95
2023-02-16T10:38:40.414Z,994.96
2023-02-16T10:39:40.403Z,994.96
2023-02-16T10:40:40.405Z,994.97
2023-02-16T10:41:40.399Z,994.92
2023-02-16T10:42:40.365Z,994.94
2023-02-16T10:43:40.346Z,994.91
2023-02-16T10:44:40.354Z,994.89
2023-02-16T10:45:40.356Z,994.85
2023-02-16T10:46:40.363Z,994.83
2023-02-16T10:47:40.312Z,994.79
2023-02-16T10:48:40.298Z,994.83
2023-02-16T10:49:40.358Z,994.81
2023-02-16T10:50:40.276Z,994.75
2023-02-16T10:51:40.286Z,994.73
2023-02-16T10:52:40.257Z,994.78
2023-02-16T10:53:40.357Z,994.79
2023-02-16T10:54:40.285Z,994.76
2023-02-16T10:55:40.899Z,994.77
2023-02-16T10:56:40.229Z,994.77
2023-02-16T10:57:41.343Z,994.73
2023-02-16T10:58:40.204Z,994.70
2023-02-16T10:59:40.853Z,994.71
2023-02-16T11:00:40.191Z,994.69
2023-02-16T11:01:41.250Z,994.67
2023-02-16T11:02:40.185Z,994.74
2023-02-16T11:03:41.652Z,994.65
2023-02-16T11:04:40.198Z,994.66
2023-02-16T11:05:40.230Z,994.65
2023-02-16T11:06:40.123Z,994.64
2023-02-16T11:07:40.304Z,994.61
2023-02-16T11:08:40.121Z,994.62
2023-02-16T11:09:40.873Z,994.62
2023-02-16T11:10:40.096Z,994.58
2023-02-16T11:11:40.136Z,994.53
2023-02-16T11:12:40.043Z,994.59
2023-02-16T11:13:40.091Z,994.60
2023-02-16T11:14:40.044Z,994.53
2023-02-16T11:15:40.693Z,994.59
2023-02-16T11:16:40.026Z,994.53
2023-02-16T11:17:40.713Z,994.53
2023-02-16T11:18:40.023Z,994.54
2023-02-16T11:19:40.004Z,994.56
2023-02-16T11:20:39.992Z,994.54
2023-02-16T11:21:40.665Z,994.49
2023-02-16T11:22:40.007Z,994.59
2023-02-16T11:23:40.648Z,994.47
2023-02-16T11:24:39.957Z,994.48
2023-02-16T11:25:40.606Z,994.43
2023-02-16T11:26:39.935Z,994.40
2023-02-16T11:27:40.598Z,994.42
2023-02-16T11:28:39.886Z,994.39
2023-02-16T11:29:39.898Z,994.42
2023-02-16T11:30:39.884Z,994.36
2023-02-16T11:31:40.315Z,994.34
2023-02-16T11:32:39.858Z,994.38
2023-02-16T11:33:40.535Z,994.38
2023-02-16T11:34:39.823Z,994.39
2023-02-16T11:35:40.534Z,994.29
2023-02-16T11:36:39.839Z,994.29
2023-02-16T11:37:40.497Z,994.34
2023-02-16T11:38:39.789Z,994.32
2023-02-16T11:39:40.438Z,994.34
2023-02-16T11:40:39.750Z,994.43
2023-02-16T11:41:40.446Z,994.38
2023-02-16T11:42:39.734Z,994.41
2023-02-16T11:43:39.755Z,994.35
2023-02-16T11:44:39.719Z,994.37
2023-02-16T11:45:40.400Z,994.32
2023-02-16T11:46:39.768Z,994.27
2023-02-16T11:47:40.359Z,994.29
2023-02-16T11:48:39.680Z,994.27
2023-02-16T11:49:39.672Z,994.25
2023-02-16T11:50:39.648Z,994.27
2023-02-16T11:51:40.330Z,994.22
2023-02-16T11:52:39.674Z,994.22
2023-02-16T11:53:39.609Z,994.22
2023-02-16T11:54:39.596Z,994.16
2023-02-16T11:55:39.623Z,994.18
2023-02-16T11:56:39.570Z,994.18
2023-02-16T11:57:39.570Z,994.11
2023-02-16T11:58:39.584Z,994.05
2023-02-16T11:59:39.554Z,994.12
2023-02-16T12:00:39.523Z,994.08
2023-02-16T12:01:39.536Z,994.07
2023-02-16T12:02:39.510Z,993.99
2023-02-16T12:03:39.573Z,993.94
2023-02-16T12:04:39.473Z,993.92
2023-02-16T12:05:39.493Z,993.96
2023-02-16T12:06:39.473Z,993.96
2023-02-16T12:07:39.457Z,993.94
2023-02-16T12:08:39.464Z,993.91
2023-02-16T12:09:39.466Z,993.92
2023-02-16T12:10:39.432Z,993.93
2023-02-16T12:11:39.414Z,993.90
2023-02-16T12:12:40.402Z,993.80
2023-02-16T12:13:39.413Z,993.88
2023-02-16T12:14:40.056Z,993.81
2023-02-16T12:15:39.400Z,993.88
2023-02-16T12:16:40.917Z,993.84
2023-02-16T12:17:39.368Z,993.79
2023-02-16T12:18:40.046Z,993.81
2023-02-16T12:19:39.429Z,993.72
2023-02-16T12:20:39.421Z,993.70
2023-02-16T12:21:39.297Z,993.66
2023-02-16T12:22:39.541Z,993.67
2023-02-16T12:23:39.297Z,993.68
2023-02-16T12:24:39.323Z,993.69
2023-02-16T12:25:39.305Z,993.62
2023-02-16T12:26:39.890Z,993.51
2023-02-16T12:27:39.246Z,993.64
2023-02-16T12:28:39.275Z,993.48